Time;durP1;ratioP1;P1;durP2;ratioP2;P2;SDS_P1;SDS_P2;PMS_P1;PMS_P2;Temp;Humidity;BMP_temperature;BMP_pressure;BME280_temperature;BME280_humidity;BME280_pressure;Samples;Min_cycle;Max_cycle;Signal;HPM_P1;HPM_P2
2024/01/06 00:00:18;;;;;;;;;;;;;;;6.73;48.57;100764.34;5011523;28;19921;-95
2024/01/06 00:02:43;;;;;;;;;;;;;;;6.73;48.35;100764.34;5011894;28;19941;-94
2024/01/06 00:05:08;;;;;;;;;;;;;;;6.74;48.50;100763.31;5012587;28;20200;-96
2024/01/06 00:07:34;;;;;;;;;;;;;;;6.76;48.31;100762.06;5013505;28;19928;-96
2024/01/06 00:09:59;;;;;;;;;;;;;;;6.75;48.50;100765.75;5013451;28;19921;-95
2024/01/06 00:12:24;;;;;;;;;;;;;;;6.76;48.68;100772.69;5005658;28;19921;-94
2024/01/06 00:14:49;;;;;;;;;;;;;;;6.76;48.62;100775.38;5004261;28;20352;-95
2024/01/06 00:17:15;;;;;;;;;;;;;;;6.77;48.65;100774.31;5011501;28;19925;-95
2024/01/06 00:19:40;;;;;;;;;;;;;;;6.77;48.55;100766.34;5010180;28;19925;-93
2024/01/06 00:22:06;;;;;;;;;;;;;;;6.78;48.42;100767.16;5011760;28;19949;-96
2024/01/06 00:24:31;;;;;;;;;;;;;;;6.76;48.37;100769.22;5009461;28;19956;-93
2024/01/06 00:26:56;;;;;;;;;;;;;;;6.73;48.32;100767.00;5010695;28;20382;-94
2024/01/06 00:29:21;;;;;;;;;;;;;;;6.72;48.40;100768.88;5011185;28;20028;-96
2024/01/06 00:31:47;;;;;;;;;;;;;;;6.72;48.61;100773.38;5009587;28;19932;-95
2024/01/06 00:34:12;;;;;;;;;;;;;;;6.74;48.49;100761.47;5012400;28;20384;-96
2024/01/06 00:36:37;;;;;;;;;;;;;;;6.75;48.40;100768.41;5008272;28;19925;-94
2024/01/06 00:39:03;;;;;;;;;;;;;;;6.71;48.50;100769.91;5010085;28;20586;-95
2024/01/06 00:41:29;;;;;;;;;;;;;;;6.69;48.73;100773.81;5013346;28;21275;-95
2024/01/06 00:43:54;;;;;;;;;;;;;;;6.70;48.54;100776.25;5011529;28;20013;-94
2024/01/06 00:46:19;;;;;;;;;;;;;;;6.67;48.75;100768.72;5011097;28;19945;-96
2024/01/06 00:48:45;;;;;;;;;;;;;;;6.71;48.73;100772.56;5009903;28;19948;-95
2024/01/06 00:51:10;;;;;;;;;;;;;;;6.72;48.75;100770.72;5013260;28;19921;-96
2024/01/06 00:53:35;;;;;;;;;;;;;;;6.72;48.71;100770.72;5011608;28;20297;-96
2024/01/06 00:56:00;;;;;;;;;;;;;;;6.69;48.64;100771.97;5011378;28;19921;-94
2024/01/06 00:58:26;;;;;;;;;;;;;;;6.65;48.30;100770.78;5010811;28;20414;-95
2024/01/06 01:00:51;;;;;;;;;;;;;;;6.65;48.46;100776.13;5014157;28;19988;-95
2024/01/06 01:03:16;;;;;;;;;;;;;;;6.67;48.61;100768.72;5017857;28;19928;-95
2024/01/06 01:05:42;;;;;;;;;;;;;;;6.69;48.32;100776.47;5019413;28;19959;-95
2024/01/06 01:08:07;;;;;;;;;;;;;;;6.66;48.73;100772.41;5024584;28;19993;-96
2024/01/06 01:10:32;;;;;;;;;;;;;;;6.66;48.74;100775.09;5026239;28;19917;-95
2024/01/06 01:12:58;;;;;;;;;;;;;;;6.66;48.69;100772.41;5033494;28;19910;-95
2024/01/06 01:20:33;;;;;;;;;;;;;;;6.64;48.48;100793.09;5071519;22;19917;-96
2024/01/06 01:22:58;;;;;;;;;;;;;;;6.63;48.62;100796.78;5052374;28;19956;-95
2024/01/06 01:33:09;;;;;;;;;;;;;;;6.68;48.63;100804.16;5963032;22;19929;-96
2024/01/06 04:20:54;;;;;;;;;;;;;;;6.46;48.59;100911.00;1812554;23;20332;-95
2024/01/06 04:23:20;;;;;;;;;;;;;;;6.47;48.48;100918.00;4984629;28;19952;-96
2024/01/06 04:25:46;;;;;;;;;;;;;;;6.51;48.39;100916.50;5008085;23;19937;-96
2024/01/06 04:28:11;;;;;;;;;;;;;;;6.48;48.48;100918.81;4991784;28;19926;-96
2024/01/06 04:30:36;;;;;;;;;;;;;;;6.45;48.48;100920.03;4987949;28;19924;-96
2024/01/06 04:33:02;;;;;;;;;;;;;;;6.45;48.56;100927.19;4989543;28;19929;-95
2024/01/06 04:35:28;;;;;;;;;;;;;;;6.44;48.38;100929.03;4990269;28;19933;-96
2024/01/06 04:37:53;;;;;;;;;;;;;;;6.43;48.62;100939.91;4991573;28;20618;-96
2024/01/06 04:40:18;;;;;;;;;;;;;;;6.43;48.48;100931.91;4994364;28;20272;-96
2024/01/06 04:42:44;;;;;;;;;;;;;;;6.42;48.68;100922.31;4993264;28;19984;-96
2024/01/06 04:45:09;;;;;;;;;;;;;;;6.44;48.64;100926.38;4992959;28;19917;-95
2024/01/06 04:47:35;;;;;;;;;;;;;;;6.44;48.31;100925.56;5034504;23;19910;-96
2024/01/06 04:50:00;;;;;;;;;;;;;;;6.41;48.69;100920.69;5009152;28;19926;-95
2024/01/06 04:52:25;;;;;;;;;;;;;;;6.41;48.40;100924.16;5009629;28;19917;-95
2024/01/06 04:54:51;;;;;;;;;;;;;;;6.41;48.54;100926.00;5007472;28;19925;-96
2024/01/06 04:57:17;;;;;;;;;;;;;;;6.40;48.63;100927.03;5007077;28;19918;-96
2024/01/06 04:59:42;;;;;;;;;;;;;;;6.39;48.44;100933.38;5010822;28;19929;-96
2024/01/06 05:02:07;;;;;;;;;;;;;;;6.39;48.81;100946.69;5005562;28;19977;-95
2024/01/06 05:04:33;;;;;;;;;;;;;;;6.39;48.61;100954.69;5009763;28;19961;-96
2024/01/06 05:06:58;;;;;;;;;;;;;;;6.36;48.65;100956.75;5008712;28;19918;-96
2024/01/06 05:09:25;;;;;;;;;;;;;;;6.38;48.48;100950.38;5007000;28;19932;-95
2024/01/06 05:19:36;;;;;;;;;;;;;;;6.39;48.81;100957.34;5746809;23;19930;-95
2024/01/06 05:22:01;;;;;;;;;;;;;;;6.39;48.54;100960.81;4974074;29;19990;-94
2024/01/06 06:26:24;;;;;;;;;;;;;;;6.15;48.71;101052.06;5011710;28;19925;-95
2024/01/06 06:28:49;;;;;;;;;;;;;;;6.14;48.70;101051.22;5009366;28;19979;-95
2024/01/06 06:31:15;;;;;;;;;;;;;;;6.14;48.61;101058.41;5009702;28;19921;-95
2024/01/06 06:33:40;;;;;;;;;;;;;;;6.13;48.75;101070.88;5003833;28;19953;-95
2024/01/06 06:36:06;;;;;;;;;;;;;;;6.14;49.05;101072.50;5006885;28;19910;-95
2024/01/06 06:38:35;;;;;;;;;;;;;;;6.13;48.92;101080.72;5012341;28;19937;-95
2024/01/06 06:41:01;;;;;;;;;;;;;;;6.11;48.92;101086.25;5002223;28;19926;-94
2024/01/06 06:43:26;;;;;;;;;;;;;;;6.12;48.98;101084.41;5007203;28;19925;-95
2024/01/06 06:45:51;;;;;;;;;;;;;;;6.14;48.98;101091.16;5003085;28;19922;-96
2024/01/06 06:48:17;;;;;;;;;;;;;;;6.14;48.97;101095.66;5003785;28;19964;-95
2024/01/06 06:50:42;;;;;;;;;;;;;;;6.15;48.75;101099.94;5001338;28;19917;-94
2024/01/06 06:53:08;;;;;;;;;;;;;;;6.15;49.11;101106.06;4995358;28;19917;-94
2024/01/06 06:55:33;;;;;;;;;;;;;;;6.17;48.81;101111.19;4998313;28;19925;-95
2024/01/06 06:57:58;;;;;;;;;;;;;;;6.14;48.87;101117.75;4997492;28;20012;-94
2024/01/06 07:00:24;;;;;;;;;;;;;;;6.16;48.67;101117.53;5005269;28;19922;-94
2024/01/06 07:02:49;;;;;;;;;;;;;;;6.15;48.38;101126.53;5000800;28;19929;-95
2024/01/06 07:05:15;;;;;;;;;;;;;;;6.15;48.80;101131.88;5001346;28;19957;-96
2024/01/06 07:07:40;;;;;;;;;;;;;;;6.11;48.65;101131.47;5001081;28;19928;-94
2024/01/06 07:10:06;;;;;;;;;;;;;;;6.11;48.63;101134.13;4998735;28;19996;-94
2024/01/06 07:12:32;;;;;;;;;;;;;;;6.14;48.69;101139.03;4999262;28;19921;-95
2024/01/06 07:14:58;;;;;;;;;;;;;;;6.14;48.57;101144.34;5003954;28;19921;-95
2024/01/06 07:17:24;;;;;;;;;;;;;;;6.16;48.70;101144.13;4999636;28;19961;-94
2024/01/06 07:19:49;;;;;;;;;;;;;;;6.19;48.71;101149.03;4996760;28;19930;-94
2024/01/06 07:22:16;;;;;;;;;;;;;;;6.20;48.91;101156.81;4998293;28;20017;-95
2024/01/06 07:24:41;;;;;;;;;;;;;;;6.20;48.47;101156.00;4999245;28;19997;-93
2024/01/06 07:27:07;;;;;;;;;;;;;;;6.17;48.61;101157.22;4998655;28;19965;-95
2024/01/06 07:29:32;;;;;;;;;;;;;;;6.19;48.51;101165.81;4995469;28;20559;-95
2024/01/06 07:31:57;;;;;;;;;;;;;;;6.19;48.92;101173.81;4990368;28;20382;-93
2024/01/06 07:34:24;;;;;;;;;;;;;;;6.21;48.82;101169.09;4993364;28;19917;-93
2024/01/06 07:36:49;;;;;;;;;;;;;;;6.20;48.82;101180.75;4997581;28;19929;-95
2024/01/06 07:39:14;;;;;;;;;;;;;;;6.19;48.71;101187.09;4992716;28;19922;-94
2024/01/06 07:41:40;;;;;;;;;;;;;;;6.18;48.84;101182.81;4996972;28;20013;-95
2024/01/06 07:44:05;;;;;;;;;;;;;;;6.19;48.58;101189.75;4990649;28;19944;-94
2024/01/06 07:46:31;;;;;;;;;;;;;;;6.20;48.52;101194.06;4996008;28;20016;-94
2024/01/06 07:48:57;;;;;;;;;;;;;;;6.19;48.92;101192.41;4991598;28;20020;-94
2024/01/06 07:51:22;;;;;;;;;;;;;;;6.17;48.67;101199.81;4993670;28;19964;-94
2024/01/06 07:53:48;;;;;;;;;;;;;;;6.17;48.85;101204.31;4995932;28;19918;-95
2024/01/06 07:56:13;;;;;;;;;;;;;;;6.17;48.91;101218.44;5004341;28;19918;-96
2024/01/06 07:58:38;;;;;;;;;;;;;;;6.16;48.97;101208.00;4999903;28;19917;-96
2024/01/06 08:01:04;;;;;;;;;;;;;;;6.16;48.91;101208.81;5005656;28;19948;-94
2024/01/06 08:03:29;;;;;;;;;;;;;;;6.18;49.02;101217.41;5005972;28;19940;-96
2024/01/06 08:05:57;;;;;;;;;;;;;;;6.19;48.60;101212.91;5007090;28;19901;-96
2024/01/06 08:08:22;;;;;;;;;;;;;;;6.16;48.63;101211.47;4997219;28;20401;-94
2024/01/06 08:10:48;;;;;;;;;;;;;;;6.15;48.63;101212.50;4993791;28;19918;-95
2024/01/06 08:13:14;;;;;;;;;;;;;;;6.16;48.91;101206.16;4991656;28;20379;-95
2024/01/06 08:15:39;;;;;;;;;;;;;;;6.15;48.75;101214.34;4999745;28;19941;-95
2024/01/06 08:18:04;;;;;;;;;;;;;;;6.16;48.63;101218.63;5003430;28;19938;-95
2024/01/06 08:20:30;;;;;;;;;;;;;;;6.18;48.71;101232.53;5009031;28;19944;-94
2024/01/06 08:22:55;;;;;;;;;;;;;;;6.19;48.69;101234.19;4998612;28;19918;-94
2024/01/06 08:25:20;;;;;;;;;;;;;;;6.21;48.67;101237.44;4988393;28;20653;-93
2024/01/06 08:27:45;;;;;;;;;;;;;;;6.22;48.82;101237.25;4994557;28;19928;-95
2024/01/06 08:30:12;;;;;;;;;;;;;;;6.22;48.53;101231.09;4990256;28;19997;-95
2024/01/06 08:32:37;;;;;;;;;;;;;;;6.19;48.72;101242.97;4990366;28;19954;-96
2024/01/06 08:35:03;;;;;;;;;;;;;;;6.18;48.45;101237.88;4989167;28;19918;-94
2024/01/06 08:37:28;;;;;;;;;;;;;;;6.15;48.50;101243.59;4992096;28;19926;-96
2024/01/06 08:39:54;;;;;;;;;;;;;;;6.14;48.63;101242.78;4986326;28;20012;-95
2024/01/06 08:42:19;;;;;;;;;;;;;;;6.15;48.64;101246.25;4987716;28;19922;-95
2024/01/06 08:44:44;;;;;;;;;;;;;;;6.13;48.54;101248.31;4990703;28;19922;-96
2024/01/06 08:47:10;;;;;;;;;;;;;;;6.12;48.59;101255.47;4993998;28;20381;-93
2024/01/06 08:49:35;;;;;;;;;;;;;;;6.12;48.68;101247.50;4988190;28;19926;-95
2024/01/06 08:52:00;;;;;;;;;;;;;;;6.17;48.65;101236.22;4987715;28;19918;-93
2024/01/06 08:54:25;;;;;;;;;;;;;;;6.20;48.62;101241.94;4986365;28;19918;-94
2024/01/06 08:56:51;;;;;;;;;;;;;;;6.21;48.63;101246.25;4991900;28;19918;-94
2024/01/06 08:59:16;;;;;;;;;;;;;;;6.23;48.59;101251.34;4988030;28;20411;-95
2024/01/06 09:01:42;;;;;;;;;;;;;;;6.22;48.42;101255.88;4988600;28;20024;-95
2024/01/06 09:04:07;;;;;;;;;;;;;;;6.20;48.40;101247.28;4986428;28;19949;-94
2024/01/06 09:06:32;;;;;;;;;;;;;;;6.20;48.33;101259.75;4990857;28;19918;-94
2024/01/06 09:08:58;;;;;;;;;;;;;;;6.23;48.62;101262.81;4993721;28;19988;-95
2024/01/06 09:11:23;;;;;;;;;;;;;;;6.27;48.27;101268.53;4993178;28;20005;-95
2024/01/06 09:13:49;;;;;;;;;;;;;;;6.30;48.45;101273.47;4989768;28;20417;-95
2024/01/06 09:16:14;;;;;;;;;;;;;;;6.30;48.38;101276.13;4988513;28;20421;-95
2024/01/06 09:18:39;;;;;;;;;;;;;;;6.30;48.24;101279.63;4991401;28;19998;-95
2024/01/06 09:21:05;;;;;;;;;;;;;;;6.29;48.43;101283.31;4990125;28;19964;-95
2024/01/06 09:23:31;;;;;;;;;;;;;;;6.30;48.43;101298.25;4990688;28;20864;-96
2024/01/06 09:25:57;;;;;;;;;;;;;;;6.31;48.05;101307.88;4988074;28;19924;-93
2024/01/06 09:28:23;;;;;;;;;;;;;;;6.32;48.30;101309.50;4985461;28;20016;-94
2024/01/06 09:30:48;;;;;;;;;;;;;;;6.35;48.54;101317.06;4989242;28;20005;-93
2024/01/06 09:33:15;;;;;;;;;;;;;;;6.40;48.47;101320.94;4985273;28;20025;-95
2024/01/06 09:35:41;;;;;;;;;;;;;;;6.39;48.37;101313.97;4981394;28;19918;-95
2024/01/06 09:38:07;;;;;;;;;;;;;;;6.38;48.16;101321.16;4981441;28;19925;-93
2024/01/06 09:40:33;;;;;;;;;;;;;;;6.42;48.32;101326.88;4986376;28;19933;-92
2024/01/06 09:42:59;;;;;;;;;;;;;;;6.42;48.06;101327.69;4988006;28;20379;-93
2024/01/06 09:45:24;;;;;;;;;;;;;;;6.43;48.28;101331.19;4982752;28;19933;-95
2024/01/06 09:47:50;;;;;;;;;;;;;;;6.44;48.42;101330.16;4985822;28;20663;-94
2024/01/06 09:50:19;;;;;;;;;;;;;;;6.46;47.93;101326.25;4989891;28;19980;-93
2024/01/06 09:52:49;;;;;;;;;;;;;;;6.47;48.25;101335.91;4987991;28;19962;-94
2024/01/06 09:55:15;;;;;;;;;;;;;;;6.48;47.91;101340.19;4988551;28;20338;-92
2024/01/06 09:57:40;;;;;;;;;;;;;;;6.50;47.79;101342.66;4985984;28;19918;-92
2024/01/06 10:00:08;;;;;;;;;;;;;;;6.52;48.15;101343.25;4985456;28;20597;-94
2024/01/06 10:02:33;;;;;;;;;;;;;;;6.50;48.13;101348.78;4985161;28;20203;-94
2024/01/06 10:04:58;;;;;;;;;;;;;;;6.48;47.91;101355.34;4985085;28;19945;-92
2024/01/06 10:07:25;;;;;;;;;;;;;;;6.48;48.17;101355.34;4984740;28;19933;-93
2024/01/06 10:09:54;;;;;;;;;;;;;;;6.46;48.19;101362.69;4982740;28;19922;-92
2024/01/06 10:12:23;;;;;;;;;;;;;;;6.48;47.88;101360.69;4987113;28;19922;-93
2024/01/06 10:14:48;;;;;;;;;;;;;;;6.48;47.83;101364.16;4990892;28;19922;-92
2024/01/06 10:17:14;;;;;;;;;;;;;;;6.46;47.89;101368.03;4987561;28;20665;-93
2024/01/06 10:19:39;;;;;;;;;;;;;;;6.49;48.07;101367.63;4986989;28;19926;-94
2024/01/06 10:22:05;;;;;;;;;;;;;;;6.47;47.75;101359.84;4987712;28;19917;-93
2024/01/06 10:24:31;;;;;;;;;;;;;;;6.46;47.72;101363.50;4982449;28;19956;-92
2024/01/06 10:26:56;;;;;;;;;;;;;;;6.46;47.65;101360.84;4985284;28;19925;-93
2024/01/06 10:29:22;;;;;;;;;;;;;;;6.44;47.73;101365.56;4984470;28;19918;-94
2024/01/06 10:31:47;;;;;;;;;;;;;;;6.45;47.83;101359.22;4989022;28;19929;-94
2024/01/06 10:34:13;;;;;;;;;;;;;;;6.49;47.62;101359.66;4989285;28;19929;-94
2024/01/06 10:36:39;;;;;;;;;;;;;;;6.52;47.60;101359.22;4990109;28;20424;-93
2024/01/06 10:39:07;;;;;;;;;;;;;;;6.49;47.55;101357.00;4983154;28;19929;-95
2024/01/06 10:41:32;;;;;;;;;;;;;;;6.49;47.60;101367.63;4986895;28;21013;-94
2024/01/06 10:44:01;;;;;;;;;;;;;;;6.49;47.69;101364.97;4988923;28;19922;-94
2024/01/06 10:46:26;;;;;;;;;;;;;;;6.52;47.92;101365.38;4993201;28;19988;-94
2024/01/06 10:48:52;;;;;;;;;;;;;;;6.57;47.46;101381.53;4991516;28;20464;-93
2024/01/06 10:51:17;;;;;;;;;;;;;;;6.62;47.67;101388.91;4988348;28;19945;-94
2024/01/06 10:53:43;;;;;;;;;;;;;;;6.64;47.48;101378.88;4991486;28;19918;-93
2024/01/06 10:56:10;;;;;;;;;;;;;;;6.67;47.29;101383.81;4989175;28;19957;-93
2024/01/06 10:58:42;;;;;;;;;;;;;;;6.68;47.61;101380.13;4993095;28;19999;-93
2024/01/06 11:01:11;;;;;;;;;;;;;;;6.68;47.55;101372.13;4989026;28;20571;-94
2024/01/06 11:03:37;;;;;;;;;;;;;;;6.68;47.36;101366.78;4992543;28;19961;-92
2024/01/06 11:06:03;;;;;;;;;;;;;;;6.68;47.19;101356.16;4991884;28;20306;-92
2024/01/06 11:08:30;;;;;;;;;;;;;;;6.70;47.28;101374.56;4992572;28;19932;-93
2024/01/06 11:10:55;;;;;;;;;;;;;;;6.71;47.26;101378.88;4993548;28;19929;-95
2024/01/06 11:13:24;;;;;;;;;;;;;;;6.76;47.35;101371.91;4992741;28;20354;-94
2024/01/06 11:15:50;;;;;;;;;;;;;;;6.76;47.11;101374.56;4990156;28;19924;-95
2024/01/06 11:18:34;;;;;;;;;;;;;;;6.75;47.44;101377.44;4990680;28;19972;-95
2024/01/06 11:21:29;;;;;;;;;;;;;;;6.76;47.30;101371.91;4989851;28;19969;-94
2024/01/06 11:24:06;;;;;;;;;;;;;;;6.76;47.40;101363.09;4991437;28;19917;-94
2024/01/06 11:26:31;;;;;;;;;;;;;;;6.74;47.31;101363.28;4987318;28;19926;-94
2024/01/06 11:28:58;;;;;;;;;;;;;;;6.75;47.05;101364.94;4984729;28;20555;-94
2024/01/06 11:31:23;;;;;;;;;;;;;;;6.75;46.82;101366.78;4986617;28;19968;-92
2024/01/06 11:33:50;;;;;;;;;;;;;;;6.77;47.24;101360.22;4989324;28;20334;-93
2024/01/06 11:36:16;;;;;;;;;;;;;;;6.80;46.79;101361.63;4990153;28;19926;-94
2024/01/06 11:38:41;;;;;;;;;;;;;;;6.84;46.93;101362.88;4988585;28;19933;-94
2024/01/06 11:41:07;;;;;;;;;;;;;;;6.85;46.75;101368.00;4978174;28;20029;-95
2024/01/06 11:43:34;;;;;;;;;;;;;;;6.88;47.16;101372.09;4987872;28;19922;-92
2024/01/06 11:46:01;;;;;;;;;;;;;;;6.91;46.99;101363.66;4990161;28;20388;-94
2024/01/06 11:48:29;;;;;;;;;;;;;;;6.95;46.59;101370.22;4988553;28;19924;-94
2024/01/06 11:50:54;;;;;;;;;;;;;;;6.97;46.97;101373.47;4988169;28;20273;-94
2024/01/06 11:53:20;;;;;;;;;;;;;;;6.99;46.69;101371.44;4988140;28;19961;-93
2024/01/06 11:55:45;;;;;;;;;;;;;;;6.97;46.55;101371.63;4990204;28;20001;-93
2024/01/06 11:58:10;;;;;;;;;;;;;;;6.97;46.63;101376.97;4988735;28;19926;-96
2024/01/06 12:00:41;;;;;;;;;;;;;;;6.98;46.79;101377.78;4991945;28;20390;-94
2024/01/06 12:03:07;;;;;;;;;;;;;;;6.99;46.70;101382.09;4989595;28;19928;-94
2024/01/06 12:05:32;;;;;;;;;;;;;;;7.00;46.51;101386.38;4990631;28;19926;-92
2024/01/06 12:08:01;;;;;;;;;;;;;;;7.03;46.75;101377.19;4988730;28;19965;-94
2024/01/06 12:10:27;;;;;;;;;;;;;;;7.03;46.66;101378.00;4988929;28;19918;-94
2024/01/06 12:13:03;;;;;;;;;;;;;;;7.04;46.61;101378.81;4990460;28;20342;-96
2024/01/06 12:15:29;;;;;;;;;;;;;;;7.07;46.47;101381.88;4983862;28;20023;-94
2024/01/06 12:17:55;;;;;;;;;;;;;;;7.07;46.39;101383.72;4986973;28;19918;-93
2024/01/06 12:20:21;;;;;;;;;;;;;;;7.03;46.58;101386.00;4987153;28;19921;-94
2024/01/06 12:22:46;;;;;;;;;;;;;;;7.02;46.29;101388.88;4987145;28;19914;-94
2024/01/06 12:25:15;;;;;;;;;;;;;;;7.01;46.64;101389.91;4988716;28;20421;-93
2024/01/06 12:27:43;;;;;;;;;;;;;;;7.00;46.49;101390.91;4988286;28;19924;-94
2024/01/06 12:30:15;;;;;;;;;;;;;;;6.99;46.37;101390.06;4987730;28;19924;-96
2024/01/06 12:32:40;;;;;;;;;;;;;;;6.96;46.37;101393.97;4989404;28;20408;-93
2024/01/06 12:35:06;;;;;;;;;;;;;;;6.96;46.87;101401.97;4989075;28;19917;-95
2024/01/06 12:37:31;;;;;;;;;;;;;;;7.02;46.60;101404.84;4987343;28;20405;-94
2024/01/06 12:39:57;;;;;;;;;;;;;;;7.02;46.82;101408.34;4986880;28;19984;-94
2024/01/06 12:42:23;;;;;;;;;;;;;;;7.04;46.68;101414.28;4988153;28;19918;-93
2024/01/06 12:44:49;;;;;;;;;;;;;;;7.04;46.75;101408.13;4986859;28;19929;-96
2024/01/06 12:47:14;;;;;;;;;;;;;;;7.03;46.65;101407.31;4987564;28;19918;-95
2024/01/06 12:49:39;;;;;;;;;;;;;;;6.97;46.48;101405.44;4986503;28;20017;-95
2024/01/06 12:52:05;;;;;;;;;;;;;;;6.95;46.54;101413.66;4987873;28;19964;-94
2024/01/06 12:54:30;;;;;;;;;;;;;;;6.95;46.62;101415.50;4986918;28;19925;-95
2024/01/06 12:56:55;;;;;;;;;;;;;;;6.91;46.94;101420.44;4987660;28;19924;-93
2024/01/06 12:59:20;;;;;;;;;;;;;;;6.92;46.95;101414.06;4992476;28;19925;-95
2024/01/06 13:01:46;;;;;;;;;;;;;;;6.93;46.87;101423.72;4983945;28;19928;-96
2024/01/06 13:04:12;;;;;;;;;;;;;;;6.92;47.02;101421.25;4978193;28;19918;-93
2024/01/06 13:06:37;;;;;;;;;;;;;;;6.90;46.95;101418.78;4993456;28;19922;-94
2024/01/06 13:09:06;;;;;;;;;;;;;;;6.86;46.76;101416.75;4989323;28;19928;-94
2024/01/06 13:11:31;;;;;;;;;;;;;;;6.81;46.76;101419.19;4989335;28;20052;-91
2024/01/06 13:13:56;;;;;;;;;;;;;;;6.79;47.10;101430.06;4990959;28;20308;-92
2024/01/06 13:16:22;;;;;;;;;;;;;;;6.77;46.91;101434.78;4987235;28;19922;-93
2024/01/06 13:18:47;;;;;;;;;;;;;;;6.76;46.73;101438.47;4988541;28;19922;-93
2024/01/06 13:21:12;;;;;;;;;;;;;;;6.75;46.93;101442.16;4989226;28;19917;-94
2024/01/06 13:23:37;;;;;;;;;;;;;;;6.71;47.22;101440.94;4987036;28;19926;-93
2024/01/06 13:26:03;;;;;;;;;;;;;;;6.72;46.85;101447.91;4992640;28;19918;-92
2024/01/06 13:28:28;;;;;;;;;;;;;;;6.71;46.78;101450.78;4992468;28;19918;-93
2024/01/06 13:30:53;;;;;;;;;;;;;;;6.66;47.10;101448.75;4992155;28;19922;-92
2024/01/06 13:33:19;;;;;;;;;;;;;;;6.62;46.91;101458.13;4986736;28;19929;-92
2024/01/06 13:35:44;;;;;;;;;;;;;;;6.60;47.22;101460.19;4990035;28;20386;-94
2024/01/06 13:38:10;;;;;;;;;;;;;;;6.61;47.44;101467.97;4983627;28;19929;-93
2024/01/06 13:40:35;;;;;;;;;;;;;;;6.62;47.01;101463.47;4991022;28;19921;-93
2024/01/06 13:43:02;;;;;;;;;;;;;;;6.63;47.02;101478.41;4989666;28;19918;-94
2024/01/06 13:45:30;;;;;;;;;;;;;;;6.58;46.91;101478.22;4989846;28;20402;-95
2024/01/06 13:47:55;;;;;;;;;;;;;;;6.55;47.26;101479.44;4981193;28;19922;-93
2024/01/06 13:50:20;;;;;;;;;;;;;;;6.55;47.45;101482.09;4991999;28;19925;-93
2024/01/06 13:52:48;;;;;;;;;;;;;;;6.54;47.49;101491.13;4988108;28;20305;-93
2024/01/06 13:55:13;;;;;;;;;;;;;;;6.55;47.22;101505.25;4986390;28;19917;-93
2024/01/06 13:57:41;;;;;;;;;;;;;;;6.55;47.13;101505.25;4988425;28;19918;-94
2024/01/06 14:00:10;;;;;;;;;;;;;;;6.52;47.22;101511.81;4982844;28;19980;-93
2024/01/06 14:02:35;;;;;;;;;;;;;;;6.50;47.07;101519.19;4987468;28;19918;-93
2024/01/06 14:05:01;;;;;;;;;;;;;;;6.46;47.42;101522.41;4987319;28;19925;-94
2024/01/06 14:07:27;;;;;;;;;;;;;;;6.42;47.57;101516.69;4982177;28;19964;-92
2024/01/06 14:09:52;;;;;;;;;;;;;;;6.38;47.52;101522.63;4988162;28;19922;-93
2024/01/06 14:12:18;;;;;;;;;;;;;;;6.38;47.65;101530.59;4985149;28;19929;-94
2024/01/06 14:14:43;;;;;;;;;;;;;;;6.38;47.74;101530.59;4990572;28;20620;-94
2024/01/06 14:17:08;;;;;;;;;;;;;;;6.39;47.55;101526.91;4984731;28;19921;-89
2024/01/06 14:19:33;;;;;;;;;;;;;;;6.41;47.70;101530.19;4991724;28;19940;-93
2024/01/06 14:21:59;;;;;;;;;;;;;;;6.41;47.78;101535.53;4991608;28;19914;-92
2024/01/06 14:24:24;;;;;;;;;;;;;;;6.39;47.65;101534.91;4990774;28;20009;-94
2024/01/06 14:26:50;;;;;;;;;;;;;;;6.35;47.93;101534.50;4991069;28;20289;-93
2024/01/06 14:29:16;;;;;;;;;;;;;;;6.31;47.74;101539.41;4991822;28;19969;-94
2024/01/06 14:31:41;;;;;;;;;;;;;;;6.31;47.81;101526.09;4992149;28;19921;-93
2024/01/06 14:34:07;;;;;;;;;;;;;;;6.33;47.85;101529.38;4987347;28;19945;-93
2024/01/06 14:36:32;;;;;;;;;;;;;;;6.34;47.87;101533.66;4986853;28;20028;-93
2024/01/06 14:38:57;;;;;;;;;;;;;;;6.32;47.42;101534.91;4979882;28;19930;-89
2024/01/06 14:41:23;;;;;;;;;;;;;;;6.28;47.82;101541.63;5147376;23;20023;-95
